Pride Of Kent — MQCJ2 — position and weather

sailwx.info

Track history (hours):
 
Tides and Currents Weather Stations Pressure Air Temp Water Temp Dewpoint Dewpoint Depression Visibility Wind Speed Wind Dir Waves Ship Positions

Pride Of Kent

Operator: P & O Ferries

Last reported at 2016-Dec-09 22:34 UTC. Time now 2016-Dec-09 23:09 UTC.
Position N 50°58' E 001°51'.

Length 180 m; draft 6 m.

Type: Passenger vessel. MMSI: 232009000.

Date/timePositionNaut miles runAvg speedWind from/ knotsBaromVisibWave heightAir tempDewpointWater temp
2016-Dec-09 22:34N 50°58' E 001°51'0 0.1
2016-Dec-09 21:33N 50°58' E 001°51'1717.5
2016-Dec-09 20:33N 51°05' E 001°26'4 4.1
2016-Dec-09 19:32N 51°07' E 001°20'1212.0
2016-Dec-09 18:34N 51°03' E 001°37'10 9.9
2016-Dec-09 17:33N 50°58' E 001°51'7 7.3
2016-Dec-09 16:33N 50°59' E 001°40'1514.3
2016-Dec-09 15:31N 51°07' E 001°20'4 4.6
2016-Dec-09 14:33N 51°06' E 001°27'1615.7
2016-Dec-09 13:33N 50°58' E 001°48'2 1.7
2016-Dec-09 12:32N 50°58' E 001°51'1515.8
2016-Dec-09 11:33N 51°04' E 001°28'6 5.0
2016-Dec-09 10:18N 51°07' E 001°20'1114.7
2016-Dec-09 09:33N 51°04' E 001°37'1110.6
2016-Dec-09 08:33N 50°58' E 001°51'5 5.1
2016-Dec-09 07:33N 50°58' E 001°43'17 8.5
2016-Dec-09 05:32N 51°07' E 001°20'8 7.8
2016-Dec-09 04:34N 51°05' E 001°31'1413.7
2016-Dec-09 03:33N 50°58' E 001°51'1 1.3
2016-Dec-09 02:34N 50°58' E 001°49'1817.6
2016-Dec-09 01:34N 51°05' E 001°23'3 3.0
2016-Dec-09 00:31N 51°07' E 001°20'1414.7
2016-Dec-08 23:33N 51°01' E 001°40'8 7.7
2016-Dec-08 22:34N 50°58' E 001°51'1111.1
2016-Dec-08 21:33N 50°60' E 001°34'11 9.9
2016-Dec-08 20:25N 51°07' E 001°20'4 4.6
2016-Dec-08 19:33N 51°07' E 001°26'1615.6
2016-Dec-08 18:33N 50°58' E 001°46'3 2.9
2016-Dec-08 17:33N 50°58' E 001°51'1313.0
2016-Dec-08 16:34N 51°02' E 001°31'9 7.5
2016-Dec-08 15:21N 51°07' E 001°20'6 7.9
2016-Dec-08 14:34N 51°05' E 001°29'1515.3
2016-Dec-08 13:33N 50°58' E 001°51'1 1.0
2016-Dec-08 12:34N 50°58' E 001°50'1817.6
2016-Dec-08 11:33N 51°05' E 001°24'3 2.8
2016-Dec-08 10:29N 51°07' E 001°20'1112.4
2016-Dec-08 09:34N 51°02' E 001°36'1010.2
2016-Dec-08 08:34N 50°58' E 001°51'6 6.2
2016-Dec-08 07:33N 50°59' E 001°41'1615.3
2016-Dec-08 06:31N 51°07' E 001°20'0 0.0
2016-Dec-08 05:32N 51°07' E 001°20'8 8.1
2016-Dec-08 04:33N 51°04' E 001°32'1413.7
2016-Dec-08 03:33N 50°58' E 001°51'0 0.0
2016-Dec-08 02:33N 50°58' E 001°51'1413.9
2016-Dec-08 01:33N 51°01' E 001°30'9 8.7
2016-Dec-08 00:33N 51°07' E 001°20'7 7.4
2016-Dec-07 23:33N 51°04' E 001°30'1414.2
2016-Dec-07 22:33N 50°58' E 001°51'0 0.2
2016-Dec-07 21:33N 50°58' E 001°51'1616.3
2016-Dec-07 20:34N 51°04' E 001°27'5 4.0
2016-Dec-07 19:15N 51°07' E 001°20'1116.1
2016-Dec-07 18:34N 51°04' E 001°37'1110.5
2016-Dec-07 17:33N 50°58' E 001°51'0 0.0
2016-Dec-07 16:33N 50°58' E 001°51'0 0.0
2016-Dec-07 15:33N 50°58' E 001°51'0 0.0
2016-Dec-07 14:33N 50°58' E 001°51'0 0.0
2016-Dec-07 13:33N 50°58' E 001°51'2 1.9
2016-Dec-07 12:33N 50°58' E 001°48'1717.5
2016-Dec-07 11:34N 51°06' E 001°23'2 2.2
2016-Dec-07 10:29N 51°07' E 001°20'1212.7
2016-Dec-07 09:33N 51°02' E 001°36'10 9.9
2016-Dec-07 08:33N 50°58' E 001°51'8 7.7
2016-Dec-07 07:33N 50°59' E 001°39'1414.0
2016-Dec-07 06:32N 51°07' E 001°20'0 0.0
2016-Dec-07 05:31N 51°07' E 001°20'9 9.1
2016-Dec-07 04:34N 51°03' E 001°32'1312.9
2016-Dec-07 03:33N 50°58' E 001°51'0 0.3
2016-Dec-07 02:34N 50°58' E 001°52'1616.1
2016-Dec-07 01:34N 51°04' E 001°28'6 5.9
2016-Dec-07 00:32N 51°07' E 001°20'1111.4
2016-Dec-06 23:33N 51°02' E 001°36'1110.9
2016-Dec-06 22:33N 50°58' E 001°52'3 2.9
2016-Dec-06 21:33N 50°58' E 001°47'1818.0
2016-Dec-06 20:33N 51°07' E 001°22'15 7.3
2016-Dec-06 18:34N 50°59' E 001°42'6 6.2
2016-Dec-06 17:33N 50°58' E 001°52'9 9.2
2016-Dec-06 16:33N 50°60' E 001°37'1311.3
2016-Dec-06 15:23N 51°07' E 001°20'4 5.0
2016-Dec-06 14:34N 51°06' E 001°26'1717.3
2016-Dec-06 13:34N 50°58' E 001°51'0 0.2
2016-Dec-06 12:33N 50°58' E 001°51'1716.9
2016-Dec-06 11:33N 51°05' E 001°26'5 4.3
2016-Dec-06 10:29N 51°07' E 001°20'8 9.0
2016-Dec-06 09:33N 51°04' E 001°32'1313.3
2016-Dec-06 08:34N 50°58' E 001°51'4 3.6
2016-Dec-06 07:33N 50°58' E 001°45'1818.1
2016-Dec-06 06:33N 51°07' E 001°20'0 0.2
2016-Dec-06 05:30N 51°07' E 001°20'1314.4
2016-Dec-06 04:33N 51°01' E 001°39'9 8.6
2016-Dec-06 03:33N 50°58' E 001°52'4 4.2
2016-Dec-06 02:33N 50°58' E 001°45'1818.3
2016-Dec-06 01:33N 51°07' E 001°20'0 0.1
2016-Dec-06 00:33N 51°07' E 001°20'1818.2
2016-Dec-05 23:34N 50°58' E 001°45'4 4.2
2016-Dec-05 22:34N 50°58' E 001°52'1111.2
2016-Dec-05 21:33N 50°59' E 001°34'1212.0
2016-Dec-05 20:32N 51°07' E 001°20'2 2.5
2016-Dec-05 19:33N 51°07' E 001°24'1817.6
2016-Dec-05 18:34N 50°58' E 001°48'2 2.3
2016-Dec-05 17:34N 50°58' E 001°52'1413.5
2016-Dec-05 16:33N 50°60' E 001°30'10 9.9
2016-Dec-05 15:32N 51°07' E 001°20'6 6.5
2016-Dec-05 14:34N 51°06' E 001°30'1515.3
2016-Dec-05 13:33N 50°58' E 001°51'0 0.1
2016-Dec-05 12:34N 50°58' E 001°51'1817.6
2016-Dec-05 11:34N 51°05' E 001°25'4 3.8
2016-Dec-05 10:33N 51°07' E 001°20'1514.7
2016-Dec-05 09:33N 51°01' E 001°41'7 6.9
2016-Dec-05 08:33N 50°58' E 001°51'6 6.1
2016-Dec-05 07:33N 50°58' E 001°41'1616.2
2016-Dec-05 06:33N 51°07' E 001°20'0 0.0
2016-Dec-05 05:24N 51°07' E 001°20'8 9.7
2016-Dec-05 04:33N 51°05' E 001°33'1313.5
2016-Dec-05 03:34N 50°58' E 001°51'0 0.0
2016-Dec-05 02:31N 50°58' E 001°51'1010.8
2016-Dec-05 01:34N 51°01' E 001°35'1211.5
2016-Dec-05 00:33N 51°07' E 001°20'6 5.8
2016-Dec-04 23:33N 51°05' E 001°29'1615.7
2016-Dec-04 22:34N 50°58' E 001°51'1 1.3
2016-Dec-04 21:34N 50°58' E 001°49'1716.8
2016-Dec-04 20:33N 51°05' E 001°24'3 3.3
2016-Dec-04 19:33N 51°07' E 001°20'1716.6
2016-Dec-04 18:33N 50°59' E 001°43'6 5.6
2016-Dec-04 17:34N 50°58' E 001°52'1211.8
2016-Dec-04 16:33N 51°02' E 001°34'10 9.8
2016-Dec-04 15:30N 51°07' E 001°20'4 3.7
2016-Dec-04 14:34N 51°06' E 001°25'1717.0
2016-Dec-04 13:34N 50°58' E 001°49'1 1.5
2016-Dec-04 12:33N 50°58' E 001°52'1414.4
2016-Dec-04 11:33N 51°03' E 001°30'8 7.5
2016-Dec-04 10:31N 51°07' E 001°20'1212.8
2016-Dec-04 09:34N 51°01' E 001°37'9 9.4
2016-Dec-04 08:33N 50°58' E 001°51'10 9.5
2016-Dec-04 07:33N 50°59' E 001°36'1313.0
2016-Dec-04 06:33N 51°07' E 001°20'0 0.0
2016-Dec-04 05:32N 51°07' E 001°20'8 8.1
2016-Dec-04 04:33N 51°03' E 001°30'1413.9
2016-Dec-04 03:33N 50°58' E 001°51'0 0.0
2016-Dec-04 02:33N 50°58' E 001°51'1615.8
2016-Dec-04 01:34N 51°05' E 001°29'6 5.7
2016-Dec-04 00:31N 51°07' E 001°20'1111.9
2016-Dec-03 23:33N 51°01' E 001°35'1010.2
2016-Dec-03 22:33N 50°58' E 001°51'7 6.6
2016-Dec-03 21:33N 50°58' E 001°41'1614.0
2016-Dec-03 20:26N 51°07' E 001°20'1 0.6
2016-Dec-03 19:33N 51°07' E 001°21'1918.9
2016-Dec-03 18:34N 50°58' E 001°47'3 3.0
2016-Dec-03 17:33N 50°58' E 001°52'9 8.8
2016-Dec-03 16:33N 50°59' E 001°38'1413.2
2016-Dec-03 15:30N 51°07' E 001°20'5 5.7
2016-Dec-03 14:33N 51°06' E 001°28'1616.4
2016-Dec-03 13:33N 50°58' E 001°51'0 0.2
2016-Dec-03 12:33N 50°58' E 001°52'1616.3
2016-Dec-03 11:33N 51°04' E 001°27'6 4.9
2016-Dec-03 10:21N 51°07' E 001°20'1113.3
2016-Dec-03 09:33N 51°03' E 001°35'1110.9
2016-Dec-03 08:33N 50°58' E 001°51'6 5.9
2016-Dec-03 07:33N 50°58' E 001°42'1616.3
2016-Dec-03 06:33N 51°07' E 001°20'0 0.1
2016-Dec-03 05:32N 51°07' E 001°20'10 9.9
2016-Dec-03 04:34N 51°03' E 001°34'1211.8
2016-Dec-03 03:33N 50°58' E 001°51'0 0.0
2016-Dec-03 02:33N 50°58' E 001°51'1615.8
2016-Dec-03 01:34N 51°04' E 001°28'6 5.3
2016-Dec-03 00:25N 51°07' E 001°20'1011.6
2016-Dec-02 23:34N 51°03' E 001°34'1211.5
2016-Dec-02 22:33N 50°58' E 001°51'7 6.7
2016-Dec-02 21:33N 50°59' E 001°40'1513.8
2016-Dec-02 20:26N 51°07' E 001°20'0 0.2
2016-Dec-02 19:33N 51°07' E 001°20'1818.3
2016-Dec-02 18:34N 50°58' E 001°45'4 4.0
2016-Dec-02 17:33N 50°58' E 001°52'1414.4
2016-Dec-02 16:34N 51°02' E 001°30'8 6.8
2016-Dec-02 15:23N 51°07' E 001°20'910.9
2016-Dec-02 14:33N 51°07' E 001°34'1313.4
2016-Dec-02 13:34N 50°58' E 001°51'2 1.9
2016-Dec-02 12:33N 50°58' E 001°48'1817.7
2016-Dec-02 11:34N 51°06' E 001°23'2 2.1
2016-Dec-02 10:30N 51°07' E 001°20'1515.7
2016-Dec-02 09:33N 50°60' E 001°40'7 7.0
2016-Dec-02 08:33N 50°58' E 001°51'5 5.2
2016-Dec-02 07:34N 50°58' E 001°43'1717.0
2016-Dec-02 06:33N 51°07' E 001°20'0 0.1
2016-Dec-02 05:33N 51°07' E 001°20'1515.7
2016-Dec-02 04:33N 50°60' E 001°42'7 6.5
2016-Dec-02 03:33N 50°58' E 001°52'9 8.1
2016-Dec-02 02:29N 50°59' E 001°38'11 5.5
2016-Dec-02 00:33N 51°07' E 001°26'1716.9
2016-Dec-01 23:34N 50°58' E 001°50'1 1.4
2016-Dec-01 22:33N 50°58' E 001°52'1514.8
2016-Dec-01 21:33N 51°02' E 001°29'8 7.3
2016-Dec-01 20:31N 51°07' E 001°20'6 5.9
2016-Dec-01 19:34N 51°05' E 001°28'1616.1
2016-Dec-01 18:34N 50°58' E 001°51'0 0.2
2016-Dec-01 17:34N 50°58' E 001°52'1615.6
2016-Dec-01 16:33N 51°04' E 001°28'6 6.2
2016-Dec-01 15:32N 51°07' E 001°20'1010.4
2016-Dec-01 14:34N 51°05' E 001°36'1211.5
2016-Dec-01 13:33N 50°58' E 001°51'2 2.2
2016-Dec-01 12:33N 50°58' E 001°48'1818.0
2016-Dec-01 11:33N 51°07' E 001°23'2 1.4
2016-Dec-01 10:27N 51°07' E 001°20'1516.5
2016-Dec-01 09:33N 50°60' E 001°40'7 6.9
2016-Dec-01 08:33N 50°58' E 001°51'7 6.8
2016-Dec-01 07:33N 50°58' E 001°40'1615.5
2016-Dec-01 06:33N 51°07' E 001°20'0 0.0
2016-Dec-01 05:31N 51°07' E 001°20'1213.1
2016-Dec-01 04:33N 51°00' E 001°37'10 9.8
2016-Dec-01 03:33N 50°58' E 001°52'6 5.8
2016-Dec-01 02:33N 50°58' E 001°42'1716.2
2016-Dec-01 01:31N 51°07' E 001°20'0 0.2
2016-Dec-01 00:33N 51°07' E 001°20'1717.2
2016-Nov-30 23:33N 50°59' E 001°44'5 4.9
2016-Nov-30 22:34N 50°58' E 001°52'1010.1
2016-Nov-30 21:33N 50°59' E 001°36'11 5.4
2016-Nov-30 19:33N 51°07' E 001°23'1918.5
2016-Nov-30 18:33N 50°58' E 001°49'1 1.5
2016-Nov-30 17:33N 50°58' E 001°52'1111.3
2016-Nov-30 16:33N 51°00' E 001°34'1110.8
2016-Nov-30 15:31N 51°07' E 001°20'6 6.4
2016-Nov-30 14:33N 51°06' E 001°29'1615.5
2016-Nov-30 13:33N 50°58' E 001°51'1 1.5
2016-Nov-30 12:33N 50°58' E 001°49'1817.5
2016-Nov-30 11:33N 51°06' E 001°24'3 2.7
2016-Nov-30 10:33N 51°07' E 001°20'1514.6
2016-Nov-30 09:34N 50°60' E 001°40'7 7.3
2016-Nov-30 08:33N 50°58' E 001°51'5 4.8
2016-Nov-30 07:33N 50°58' E 001°43'1716.8
2016-Nov-30 06:32N 51°07' E 001°20'0 0.0
2016-Nov-30 05:32N 51°07' E 001°20'1212.0
2016-Nov-30 04:34N 51°02' E 001°37'1010.1
2016-Nov-30 03:33N 50°58' E 001°52'4 3.8
2016-Nov-30 02:33N 50°58' E 001°46'1818.4
2016-Nov-30 01:33N 51°07' E 001°20'0 0.1
2016-Nov-30 00:33N 51°07' E 001°20'1615.6
2016-Nov-29 23:33N 50°59' E 001°42'6 6.5
2016-Nov-29 22:34N 50°58' E 001°52'  
Track history (hours):
 
Tides and Currents Weather Stations Pressure Air Temp Water Temp Dewpoint Dewpoint Depression Visibility Wind Speed Wind Dir Waves Ship Positions

Pride Of Kent

Operator: P & O Ferries

Last reported at 2016-Dec-09 22:34 UTC. Time now 2016-Dec-09 23:09 UTC.
Position N 50°58' E 001°51'.

Length 180 m; draft 6 m.

Type: Passenger vessel. MMSI: 232009000.

Date/timePositionNaut miles runAvg speedWind from/ knotsBaromVisibWave heightAir tempDewpointWater temp
2016-Dec-09 22:34N 50°58' E 001°51'0 0.1
2016-Dec-09 21:33N 50°58' E 001°51'1717.5
2016-Dec-09 20:33N 51°05' E 001°26'4 4.1
2016-Dec-09 19:32N 51°07' E 001°20'1212.0
2016-Dec-09 18:34N 51°03' E 001°37'10 9.9
2016-Dec-09 17:33N 50°58' E 001°51'7 7.3
2016-Dec-09 16:33N 50°59' E 001°40'1514.3
2016-Dec-09 15:31N 51°07' E 001°20'4 4.6
2016-Dec-09 14:33N 51°06' E 001°27'1615.7
2016-Dec-09 13:33N 50°58' E 001°48'2 1.7
2016-Dec-09 12:32N 50°58' E 001°51'1515.8
2016-Dec-09 11:33N 51°04' E 001°28'6 5.0
2016-Dec-09 10:18N 51°07' E 001°20'1114.7
2016-Dec-09 09:33N 51°04' E 001°37'1110.6
2016-Dec-09 08:33N 50°58' E 001°51'5 5.1
2016-Dec-09 07:33N 50°58' E 001°43'17 8.5
2016-Dec-09 05:32N 51°07' E 001°20'8 7.8
2016-Dec-09 04:34N 51°05' E 001°31'1413.7
2016-Dec-09 03:33N 50°58' E 001°51'1 1.3
2016-Dec-09 02:34N 50°58' E 001°49'1817.6
2016-Dec-09 01:34N 51°05' E 001°23'3 3.0
2016-Dec-09 00:31N 51°07' E 001°20'1414.7
2016-Dec-08 23:33N 51°01' E 001°40'8 7.7
2016-Dec-08 22:34N 50°58' E 001°51'1111.1
2016-Dec-08 21:33N 50°60' E 001°34'11 9.9
2016-Dec-08 20:25N 51°07' E 001°20'4 4.6
2016-Dec-08 19:33N 51°07' E 001°26'1615.6
2016-Dec-08 18:33N 50°58' E 001°46'3 2.9
2016-Dec-08 17:33N 50°58' E 001°51'1313.0
2016-Dec-08 16:34N 51°02' E 001°31'9 7.5
2016-Dec-08 15:21N 51°07' E 001°20'6 7.9
2016-Dec-08 14:34N 51°05' E 001°29'1515.3
2016-Dec-08 13:33N 50°58' E 001°51'1 1.0
2016-Dec-08 12:34N 50°58' E 001°50'1817.6
2016-Dec-08 11:33N 51°05' E 001°24'3 2.8
2016-Dec-08 10:29N 51°07' E 001°20'1112.4
2016-Dec-08 09:34N 51°02' E 001°36'1010.2
2016-Dec-08 08:34N 50°58' E 001°51'6 6.2
2016-Dec-08 07:33N 50°59' E 001°41'1615.3
2016-Dec-08 06:31N 51°07' E 001°20'0 0.0
2016-Dec-08 05:32N 51°07' E 001°20'8 8.1
2016-Dec-08 04:33N 51°04' E 001°32'1413.7
2016-Dec-08 03:33N 50°58' E 001°51'0 0.0
2016-Dec-08 02:33N 50°58' E 001°51'1413.9
2016-Dec-08 01:33N 51°01' E 001°30'9 8.7
2016-Dec-08 00:33N 51°07' E 001°20'7 7.4
2016-Dec-07 23:33N 51°04' E 001°30'1414.2
2016-Dec-07 22:33N 50°58' E 001°51'0 0.2
2016-Dec-07 21:33N 50°58' E 001°51'1616.3
2016-Dec-07 20:34N 51°04' E 001°27'5 4.0
2016-Dec-07 19:15N 51°07' E 001°20'1116.1
2016-Dec-07 18:34N 51°04' E 001°37'1110.5
2016-Dec-07 17:33N 50°58' E 001°51'0 0.0
2016-Dec-07 16:33N 50°58' E 001°51'0 0.0
2016-Dec-07 15:33N 50°58' E 001°51'0 0.0
2016-Dec-07 14:33N 50°58' E 001°51'0 0.0
2016-Dec-07 13:33N 50°58' E 001°51'2 1.9
2016-Dec-07 12:33N 50°58' E 001°48'1717.5
2016-Dec-07 11:34N 51°06' E 001°23'2 2.2
2016-Dec-07 10:29N 51°07' E 001°20'1212.7
2016-Dec-07 09:33N 51°02' E 001°36'10 9.9
2016-Dec-07 08:33N 50°58' E 001°51'8 7.7
2016-Dec-07 07:33N 50°59' E 001°39'1414.0
2016-Dec-07 06:32N 51°07' E 001°20'0 0.0
2016-Dec-07 05:31N 51°07' E 001°20'9 9.1
2016-Dec-07 04:34N 51°03' E 001°32'1312.9
2016-Dec-07 03:33N 50°58' E 001°51'0 0.3
2016-Dec-07 02:34N 50°58' E 001°52'1616.1
2016-Dec-07 01:34N 51°04' E 001°28'6 5.9
2016-Dec-07 00:32N 51°07' E 001°20'1111.4
2016-Dec-06 23:33N 51°02' E 001°36'1110.9
2016-Dec-06 22:33N 50°58' E 001°52'3 2.9
2016-Dec-06 21:33N 50°58' E 001°47'1818.0
2016-Dec-06 20:33N 51°07' E 001°22'15 7.3
2016-Dec-06 18:34N 50°59' E 001°42'6 6.2
2016-Dec-06 17:33N 50°58' E 001°52'9 9.2
2016-Dec-06 16:33N 50°60' E 001°37'1311.3
2016-Dec-06 15:23N 51°07' E 001°20'4 5.0
2016-Dec-06 14:34N 51°06' E 001°26'1717.3
2016-Dec-06 13:34N 50°58' E 001°51'0 0.2
2016-Dec-06 12:33N 50°58' E 001°51'1716.9
2016-Dec-06 11:33N 51°05' E 001°26'5 4.3
2016-Dec-06 10:29N 51°07' E 001°20'8 9.0
2016-Dec-06 09:33N 51°04' E 001°32'1313.3
2016-Dec-06 08:34N 50°58' E 001°51'4 3.6
2016-Dec-06 07:33N 50°58' E 001°45'1818.1
2016-Dec-06 06:33N 51°07' E 001°20'0 0.2
2016-Dec-06 05:30N 51°07' E 001°20'1314.4
2016-Dec-06 04:33N 51°01' E 001°39'9 8.6
2016-Dec-06 03:33N 50°58' E 001°52'4 4.2
2016-Dec-06 02:33N 50°58' E 001°45'1818.3
2016-Dec-06 01:33N 51°07' E 001°20'0 0.1
2016-Dec-06 00:33N 51°07' E 001°20'1818.2
2016-Dec-05 23:34N 50°58' E 001°45'4 4.2
2016-Dec-05 22:34N 50°58' E 001°52'1111.2
2016-Dec-05 21:33N 50°59' E 001°34'1212.0
2016-Dec-05 20:32N 51°07' E 001°20'2 2.5
2016-Dec-05 19:33N 51°07' E 001°24'1817.6
2016-Dec-05 18:34N 50°58' E 001°48'2 2.3
2016-Dec-05 17:34N 50°58' E 001°52'1413.5
2016-Dec-05 16:33N 50°60' E 001°30'10 9.9
2016-Dec-05 15:32N 51°07' E 001°20'6 6.5
2016-Dec-05 14:34N 51°06' E 001°30'1515.3
2016-Dec-05 13:33N 50°58' E 001°51'0 0.1
2016-Dec-05 12:34N 50°58' E 001°51'1817.6
2016-Dec-05 11:34N 51°05' E 001°25'4 3.8
2016-Dec-05 10:33N 51°07' E 001°20'1514.7
2016-Dec-05 09:33N 51°01' E 001°41'7 6.9
2016-Dec-05 08:33N 50°58' E 001°51'6 6.1
2016-Dec-05 07:33N 50°58' E 001°41'1616.2
2016-Dec-05 06:33N 51°07' E 001°20'0 0.0
2016-Dec-05 05:24N 51°07' E 001°20'8 9.7
2016-Dec-05 04:33N 51°05' E 001°33'1313.5
2016-Dec-05 03:34N 50°58' E 001°51'0 0.0
2016-Dec-05 02:31N 50°58' E 001°51'1010.8
2016-Dec-05 01:34N 51°01' E 001°35'1211.5
2016-Dec-05 00:33N 51°07' E 001°20'6 5.8
2016-Dec-04 23:33N 51°05' E 001°29'1615.7
2016-Dec-04 22:34N 50°58' E 001°51'1 1.3
2016-Dec-04 21:34N 50°58' E 001°49'1716.8
2016-Dec-04 20:33N 51°05' E 001°24'3 3.3
2016-Dec-04 19:33N 51°07' E 001°20'1716.6
2016-Dec-04 18:33N 50°59' E 001°43'6 5.6
2016-Dec-04 17:34N 50°58' E 001°52'1211.8
2016-Dec-04 16:33N 51°02' E 001°34'10 9.8
2016-Dec-04 15:30N 51°07' E 001°20'4 3.7
2016-Dec-04 14:34N 51°06' E 001°25'1717.0
2016-Dec-04 13:34N 50°58' E 001°49'1 1.5
2016-Dec-04 12:33N 50°58' E 001°52'1414.4
2016-Dec-04 11:33N 51°03' E 001°30'8 7.5
2016-Dec-04 10:31N 51°07' E 001°20'1212.8
2016-Dec-04 09:34N 51°01' E 001°37'9 9.4
2016-Dec-04 08:33N 50°58' E 001°51'10 9.5
2016-Dec-04 07:33N 50°59' E 001°36'1313.0
2016-Dec-04 06:33N 51°07' E 001°20'0 0.0
2016-Dec-04 05:32N 51°07' E 001°20'8 8.1
2016-Dec-04 04:33N 51°03' E 001°30'1413.9
2016-Dec-04 03:33N 50°58' E 001°51'0 0.0
2016-Dec-04 02:33N 50°58' E 001°51'1615.8
2016-Dec-04 01:34N 51°05' E 001°29'6 5.7
2016-Dec-04 00:31N 51°07' E 001°20'1111.9
2016-Dec-03 23:33N 51°01' E 001°35'1010.2
2016-Dec-03 22:33N 50°58' E 001°51'7 6.6
2016-Dec-03 21:33N 50°58' E 001°41'1614.0
2016-Dec-03 20:26N 51°07' E 001°20'1 0.6
2016-Dec-03 19:33N 51°07' E 001°21'1918.9
2016-Dec-03 18:34N 50°58' E 001°47'3 3.0
2016-Dec-03 17:33N 50°58' E 001°52'9 8.8
2016-Dec-03 16:33N 50°59' E 001°38'1413.2
2016-Dec-03 15:30N 51°07' E 001°20'5 5.7
2016-Dec-03 14:33N 51°06' E 001°28'1616.4
2016-Dec-03 13:33N 50°58' E 001°51'0 0.2
2016-Dec-03 12:33N 50°58' E 001°52'1616.3
2016-Dec-03 11:33N 51°04' E 001°27'6 4.9
2016-Dec-03 10:21N 51°07' E 001°20'1113.3
2016-Dec-03 09:33N 51°03' E 001°35'1110.9
2016-Dec-03 08:33N 50°58' E 001°51'6 5.9
2016-Dec-03 07:33N 50°58' E 001°42'1616.3
2016-Dec-03 06:33N 51°07' E 001°20'0 0.1
2016-Dec-03 05:32N 51°07' E 001°20'10 9.9
2016-Dec-03 04:34N 51°03' E 001°34'1211.8
2016-Dec-03 03:33N 50°58' E 001°51'0 0.0
2016-Dec-03 02:33N 50°58' E 001°51'1615.8
2016-Dec-03 01:34N 51°04' E 001°28'6 5.3
2016-Dec-03 00:25N 51°07' E 001°20'1011.6
2016-Dec-02 23:34N 51°03' E 001°34'1211.5
2016-Dec-02 22:33N 50°58' E 001°51'7 6.7
2016-Dec-02 21:33N 50°59' E 001°40'1513.8
2016-Dec-02 20:26N 51°07' E 001°20'0 0.2
2016-Dec-02 19:33N 51°07' E 001°20'1818.3
2016-Dec-02 18:34N 50°58' E 001°45'4 4.0
2016-Dec-02 17:33N 50°58' E 001°52'1414.4
2016-Dec-02 16:34N 51°02' E 001°30'8 6.8
2016-Dec-02 15:23N 51°07' E 001°20'910.9
2016-Dec-02 14:33N 51°07' E 001°34'1313.4
2016-Dec-02 13:34N 50°58' E 001°51'2 1.9
2016-Dec-02 12:33N 50°58' E 001°48'1817.7
2016-Dec-02 11:34N 51°06' E 001°23'2 2.1
2016-Dec-02 10:30N 51°07' E 001°20'1515.7
2016-Dec-02 09:33N 50°60' E 001°40'7 7.0
2016-Dec-02 08:33N 50°58' E 001°51'5 5.2
2016-Dec-02 07:34N 50°58' E 001°43'1717.0
2016-Dec-02 06:33N 51°07' E 001°20'0 0.1
2016-Dec-02 05:33N 51°07' E 001°20'1515.7
2016-Dec-02 04:33N 50°60' E 001°42'7 6.5
2016-Dec-02 03:33N 50°58' E 001°52'9 8.1
2016-Dec-02 02:29N 50°59' E 001°38'11 5.5
2016-Dec-02 00:33N 51°07' E 001°26'1716.9
2016-Dec-01 23:34N 50°58' E 001°50'1 1.4
2016-Dec-01 22:33N 50°58' E 001°52'1514.8
2016-Dec-01 21:33N 51°02' E 001°29'8 7.3
2016-Dec-01 20:31N 51°07' E 001°20'6 5.9
2016-Dec-01 19:34N 51°05' E 001°28'1616.1
2016-Dec-01 18:34N 50°58' E 001°51'0 0.2
2016-Dec-01 17:34N 50°58' E 001°52'1615.6
2016-Dec-01 16:33N 51°04' E 001°28'6 6.2
2016-Dec-01 15:32N 51°07' E 001°20'1010.4
2016-Dec-01 14:34N 51°05' E 001°36'1211.5
2016-Dec-01 13:33N 50°58' E 001°51'2 2.2
2016-Dec-01 12:33N 50°58' E 001°48'1818.0
2016-Dec-01 11:33N 51°07' E 001°23'2 1.4
2016-Dec-01 10:27N 51°07' E 001°20'1516.5
2016-Dec-01 09:33N 50°60' E 001°40'7 6.9
2016-Dec-01 08:33N 50°58' E 001°51'7 6.8
2016-Dec-01 07:33N 50°58' E 001°40'1615.5
2016-Dec-01 06:33N 51°07' E 001°20'0 0.0
2016-Dec-01 05:31N 51°07' E 001°20'1213.1
2016-Dec-01 04:33N 51°00' E 001°37'10 9.8
2016-Dec-01 03:33N 50°58' E 001°52'6 5.8
2016-Dec-01 02:33N 50°58' E 001°42'1716.2
2016-Dec-01 01:31N 51°07' E 001°20'0 0.2
2016-Dec-01 00:33N 51°07' E 001°20'1717.2
2016-Nov-30 23:33N 50°59' E 001°44'5 4.9
2016-Nov-30 22:34N 50°58' E 001°52'1010.1
2016-Nov-30 21:33N 50°59' E 001°36'11 5.4
2016-Nov-30 19:33N 51°07' E 001°23'1918.5
2016-Nov-30 18:33N 50°58' E 001°49'1 1.5
2016-Nov-30 17:33N 50°58' E 001°52'1111.3
2016-Nov-30 16:33N 51°00' E 001°34'1110.8
2016-Nov-30 15:31N 51°07' E 001°20'6 6.4
2016-Nov-30 14:33N 51°06' E 001°29'1615.5
2016-Nov-30 13:33N 50°58' E 001°51'1 1.5
2016-Nov-30 12:33N 50°58' E 001°49'1817.5
2016-Nov-30 11:33N 51°06' E 001°24'3 2.7
2016-Nov-30 10:33N 51°07' E 001°20'1514.6
2016-Nov-30 09:34N 50°60' E 001°40'7 7.3
2016-Nov-30 08:33N 50°58' E 001°51'5 4.8
2016-Nov-30 07:33N 50°58' E 001°43'1716.8
2016-Nov-30 06:32N 51°07' E 001°20'0 0.0
2016-Nov-30 05:32N 51°07' E 001°20'1212.0
2016-Nov-30 04:34N 51°02' E 001°37'1010.1
2016-Nov-30 03:33N 50°58' E 001°52'4 3.8
2016-Nov-30 02:33N 50°58' E 001°46'1818.4
2016-Nov-30 01:33N 51°07' E 001°20'0 0.1
2016-Nov-30 00:33N 51°07' E 001°20'1615.6
2016-Nov-29 23:33N 50°59' E 001°42'6 6.5
2016-Nov-29 22:34N 50°58' E 001°52'  

Dump ship's entire track history